sensor_id;sensor_type;location;lat;lon;timestamp;pressure;altitude;pressure_sealevel;temperature;humidity
39295;BME280;52361;52.100;5.248;2023-06-14T00:02:55;101446.0;;;22.51;42.23
39295;BME280;52361;52.100;5.248;2023-06-14T00:04:31;101441.0;;;22.1;42.69
39295;BME280;52361;52.100;5.248;2023-06-14T00:06:07;101449.0;;;22.06;42.89
39295;BME280;52361;52.100;5.248;2023-06-14T00:09:19;101443.0;;;22.09;42.95
39295;BME280;52361;52.100;5.248;2023-06-14T00:10:55;101443.0;;;21.99;43.05
39295;BME280;52361;52.100;5.248;2023-06-14T00:12:31;101445.0;;;21.93;43.11
39295;BME280;52361;52.100;5.248;2023-06-14T00:14:08;101442.0;;;22.0;43.28
39295;BME280;52361;52.100;5.248;2023-06-14T00:17:21;101445.0;;;21.95;43.48
39295;BME280;52361;52.100;5.248;2023-06-14T00:18:57;101442.0;;;21.98;43.15
39295;BME280;52361;52.100;5.248;2023-06-14T00:20:33;101443.0;;;21.89;43.54
39295;BME280;52361;52.100;5.248;2023-06-14T00:23:46;101446.0;;;21.94;43.29
39295;BME280;52361;52.100;5.248;2023-06-14T00:25:22;101450.0;;;21.94;43.43
39295;BME280;52361;52.100;5.248;2023-06-14T00:26:59;101450.0;;;21.97;43.32
39295;BME280;52361;52.100;5.248;2023-06-14T00:30:12;101448.0;;;21.95;43.49
39295;BME280;52361;52.100;5.248;2023-06-14T00:31:48;101452.0;;;21.8;43.65
39295;BME280;52361;52.100;5.248;2023-06-14T00:33:24;101452.0;;;21.84;43.79
39295;BME280;52361;52.100;5.248;2023-06-14T00:35:00;101455.0;;;21.84;43.86
39295;BME280;52361;52.100;5.248;2023-06-14T00:38:13;101450.0;;;21.9;43.77
39295;BME280;52361;52.100;5.248;2023-06-14T00:39:49;101448.0;;;21.79;44.38
39295;BME280;52361;52.100;5.248;2023-06-14T00:41:25;101447.0;;;21.75;43.94
39295;BME280;52361;52.100;5.248;2023-06-14T00:44:37;101451.0;;;21.6;44.42
39295;BME280;52361;52.100;5.248;2023-06-14T00:46:13;101444.0;;;21.72;44.17
39295;BME280;52361;52.100;5.248;2023-06-14T00:47:50;101444.0;;;21.61;44.47
39295;BME280;52361;52.100;5.248;2023-06-14T00:51:05;101450.0;;;21.51;44.57
39295;BME280;52361;52.100;5.248;2023-06-14T00:52:42;101446.0;;;21.55;44.7
39295;BME280;52361;52.100;5.248;2023-06-14T00:54:18;101447.0;;;21.49;44.81
39295;BME280;52361;52.100;5.248;2023-06-14T00:57:31;101446.0;;;21.45;44.88
39295;BME280;52361;52.100;5.248;2023-06-14T00:59:07;101445.0;;;21.44;44.91
39295;BME280;52361;52.100;5.248;2023-06-14T01:00:43;101448.0;;;21.39;45.28
39295;BME280;52361;52.100;5.248;2023-06-14T01:02:19;101445.0;;;21.21;45.47
39295;BME280;52361;52.100;5.248;2023-06-14T01:05:31;101448.0;;;21.24;45.57
39295;BME280;52361;52.100;5.248;2023-06-14T01:07:15;101445.0;;;21.16;45.7
39295;BME280;52361;52.100;5.248;2023-06-14T01:09:03;101446.0;;;21.22;45.98
39295;BME280;52361;52.100;5.248;2023-06-14T01:10:47;101448.0;;;21.23;45.7
39295;BME280;52361;52.100;5.248;2023-06-14T01:14:25;101445.0;;;21.23;45.69
39295;BME280;52361;52.100;5.248;2023-06-14T01:16:04;101446.0;;;21.08;46.11
39295;BME280;52361;52.100;5.248;2023-06-14T01:17:44;101447.0;;;21.14;45.93
39295;BME280;52361;52.100;5.248;2023-06-14T01:19:22;101446.0;;;21.08;46.13
39295;BME280;52361;52.100;5.248;2023-06-14T01:22:35;101445.0;;;21.07;46.24
39295;BME280;52361;52.100;5.248;2023-06-14T01:24:11;101444.0;;;20.98;46.23
39295;BME280;52361;52.100;5.248;2023-06-14T01:25:47;101447.0;;;21.06;46.09
39295;BME280;52361;52.100;5.248;2023-06-14T01:27:25;101438.0;;;21.07;46.18
39295;BME280;52361;52.100;5.248;2023-06-14T01:30:39;101441.0;;;20.97;46.21
39295;BME280;52361;52.100;5.248;2023-06-14T01:32:16;101441.0;;;21.0;46.24
39295;BME280;52361;52.100;5.248;2023-06-14T01:33:53;101440.0;;;20.92;46.21
39295;BME280;52361;52.100;5.248;2023-06-14T01:37:06;101443.0;;;20.88;46.33
39295;BME280;52361;52.100;5.248;2023-06-14T01:38:44;101442.0;;;20.84;46.54
39295;BME280;52361;52.100;5.248;2023-06-14T01:40:21;101448.0;;;20.87;46.3
39295;BME280;52361;52.100;5.248;2023-06-14T01:41:58;101452.0;;;20.86;46.3
39295;BME280;52361;52.100;5.248;2023-06-14T01:45:11;101447.0;;;20.81;46.73
39295;BME280;52361;52.100;5.248;2023-06-14T01:46:48;101450.0;;;20.82;46.57
39295;BME280;52361;52.100;5.248;2023-06-14T01:48:25;101445.0;;;20.82;46.47
39295;BME280;52361;52.100;5.248;2023-06-14T01:51:39;101447.0;;;20.75;46.58
39295;BME280;52361;52.100;5.248;2023-06-14T01:53:15;101444.0;;;20.69;46.69
39295;BME280;52361;52.100;5.248;2023-06-14T01:54:52;101441.0;;;20.52;46.85
39295;BME280;52361;52.100;5.248;2023-06-14T01:58:05;101442.0;;;20.65;46.74
39295;BME280;52361;52.100;5.248;2023-06-14T01:59:40;101441.0;;;20.76;46.66
39295;BME280;52361;52.100;5.248;2023-06-14T02:01:16;101442.0;;;20.69;46.65
39295;BME280;52361;52.100;5.248;2023-06-14T02:02:53;101439.0;;;20.67;46.82
39295;BME280;52361;52.100;5.248;2023-06-14T02:06:05;101442.0;;;20.51;46.94
39295;BME280;52361;52.100;5.248;2023-06-14T02:07:41;101441.0;;;20.53;47.12
39295;BME280;52361;52.100;5.248;2023-06-14T02:09:17;101443.0;;;20.52;47.14
39295;BME280;52361;52.100;5.248;2023-06-14T02:12:30;101439.0;;;20.51;47.24
39295;BME280;52361;52.100;5.248;2023-06-14T02:14:06;101440.0;;;20.47;47.49
39295;BME280;52361;52.100;5.248;2023-06-14T02:15:42;101445.0;;;20.47;47.51
39295;BME280;52361;52.100;5.248;2023-06-14T02:18:54;101442.0;;;20.38;47.57
39295;BME280;52361;52.100;5.248;2023-06-14T02:20:30;101441.0;;;20.34;47.86
39295;BME280;52361;52.100;5.248;2023-06-14T02:22:06;101438.0;;;20.41;47.76
39295;BME280;52361;52.100;5.248;2023-06-14T02:25:19;101438.0;;;20.36;47.83
39295;BME280;52361;52.100;5.248;2023-06-14T02:26:55;101434.0;;;20.18;48.27
39295;BME280;52361;52.100;5.248;2023-06-14T02:28:31;101434.0;;;20.11;48.45
39295;BME280;52361;52.100;5.248;2023-06-14T02:30:08;101436.0;;;19.95;48.77
39295;BME280;52361;52.100;5.248;2023-06-14T02:33:21;101445.0;;;20.03;49.08
39295;BME280;52361;52.100;5.248;2023-06-14T02:34:57;101449.0;;;20.0;49.02
39295;BME280;52361;52.100;5.248;2023-06-14T02:36:34;101446.0;;;19.98;49.14
39295;BME280;52361;52.100;5.248;2023-06-14T02:39:46;101445.0;;;19.95;49.13
39295;BME280;52361;52.100;5.248;2023-06-14T02:41:22;101451.0;;;19.89;49.5
39295;BME280;52361;52.100;5.248;2023-06-14T02:42:58;101451.0;;;19.8;49.64
39295;BME280;52361;52.100;5.248;2023-06-14T02:46:11;101448.0;;;19.8;49.64
39295;BME280;52361;52.100;5.248;2023-06-14T02:47:47;101448.0;;;19.77;49.9
39295;BME280;52361;52.100;5.248;2023-06-14T02:49:23;101449.0;;;19.77;49.78
39295;BME280;52361;52.100;5.248;2023-06-14T02:50:59;101455.0;;;19.71;49.91
39295;BME280;52361;52.100;5.248;2023-06-14T02:54:11;101452.0;;;19.62;50.25
39295;BME280;52361;52.100;5.248;2023-06-14T02:55:47;101455.0;;;19.61;50.49
39295;BME280;52361;52.100;5.248;2023-06-14T02:57:24;101452.0;;;19.64;50.46
39295;BME280;52361;52.100;5.248;2023-06-14T03:00:36;101456.0;;;19.61;50.95
39295;BME280;52361;52.100;5.248;2023-06-14T03:02:12;101459.0;;;19.64;50.64
39295;BME280;52361;52.100;5.248;2023-06-14T03:03:48;101458.0;;;19.64;50.41
39295;BME280;52361;52.100;5.248;2023-06-14T03:07:01;101462.0;;;19.66;50.44
39295;BME280;52361;52.100;5.248;2023-06-14T03:08:37;101465.0;;;19.59;50.58
39295;BME280;52361;52.100;5.248;2023-06-14T03:10:13;101465.0;;;19.56;50.77
39295;BME280;52361;52.100;5.248;2023-06-14T03:13:25;101464.0;;;19.41;50.96
39295;BME280;52361;52.100;5.248;2023-06-14T03:15:02;101471.0;;;19.52;50.78
39295;BME280;52361;52.100;5.248;2023-06-14T03:16:38;101468.0;;;19.47;50.86
39295;BME280;52361;52.100;5.248;2023-06-14T03:18:15;101470.0;;;19.38;51.16
39295;BME280;52361;52.100;5.248;2023-06-14T03:21:27;101467.0;;;19.36;51.45
39295;BME280;52361;52.100;5.248;2023-06-14T03:23:03;101471.0;;;19.43;51.03
39295;BME280;52361;52.100;5.248;2023-06-14T03:24:39;101472.0;;;19.3;51.38
39295;BME280;52361;52.100;5.248;2023-06-14T03:27:51;101470.0;;;19.31;51.46
39295;BME280;52361;52.100;5.248;2023-06-14T03:29:27;101476.0;;;19.31;51.24
39295;BME280;52361;52.100;5.248;2023-06-14T03:31:04;101475.0;;;19.21;51.69
39295;BME280;52361;52.100;5.248;2023-06-14T03:34:16;101475.0;;;19.27;51.23
39295;BME280;52361;52.100;5.248;2023-06-14T03:35:52;101476.0;;;19.25;51.34
39295;BME280;52361;52.100;5.248;2023-06-14T03:37:28;101480.0;;;19.21;51.33
39295;BME280;52361;52.100;5.248;2023-06-14T03:40:40;101481.0;;;19.2;51.52
39295;BME280;52361;52.100;5.248;2023-06-14T03:42:17;101477.0;;;19.3;51.31
39295;BME280;52361;52.100;5.248;2023-06-14T03:43:53;101486.0;;;19.18;51.62
39295;BME280;52361;52.100;5.248;2023-06-14T03:45:29;101488.0;;;19.25;51.55
39295;BME280;52361;52.100;5.248;2023-06-14T03:48:41;101488.0;;;19.27;51.41
39295;BME280;52361;52.100;5.248;2023-06-14T03:50:17;101493.0;;;19.25;51.58
39295;BME280;52361;52.100;5.248;2023-06-14T03:51:53;101492.0;;;19.25;51.58
39295;BME280;52361;52.100;5.248;2023-06-14T03:55:06;101494.0;;;19.25;51.41
39295;BME280;52361;52.100;5.248;2023-06-14T03:56:42;101493.0;;;19.27;51.57
39295;BME280;52361;52.100;5.248;2023-06-14T03:58:18;101502.0;;;19.3;51.45
39295;BME280;52361;52.100;5.248;2023-06-14T04:01:30;101505.0;;;19.34;51.31
39295;BME280;52361;52.100;5.248;2023-06-14T04:03:06;101503.0;;;19.12;51.84
39295;BME280;52361;52.100;5.248;2023-06-14T04:04:43;101503.0;;;19.25;51.71
39295;BME280;52361;52.100;5.248;2023-06-14T04:06:19;101505.0;;;19.34;51.67
39295;BME280;52361;52.100;5.248;2023-06-14T04:09:31;101506.0;;;19.3;51.66
39295;BME280;52361;52.100;5.248;2023-06-14T04:11:07;101509.0;;;19.28;51.63
39295;BME280;52361;52.100;5.248;2023-06-14T04:12:43;101512.0;;;19.28;51.7
39295;BME280;52361;52.100;5.248;2023-06-14T04:15:56;101516.0;;;19.25;51.81
39295;BME280;52361;52.100;5.248;2023-06-14T04:17:32;101513.0;;;19.34;51.79
39295;BME280;52361;52.100;5.248;2023-06-14T04:19:08;101514.0;;;19.28;51.92
39295;BME280;52361;52.100;5.248;2023-06-14T04:22:20;101514.0;;;19.47;51.28
39295;BME280;52361;52.100;5.248;2023-06-14T04:23:56;101515.0;;;19.11;52.31
39295;BME280;52361;52.100;5.248;2023-06-14T04:25:32;101517.0;;;19.23;52.3
39295;BME280;52361;52.100;5.248;2023-06-14T04:28:45;101518.0;;;19.25;52.32
39295;BME280;52361;52.100;5.248;2023-06-14T04:30:21;101518.0;;;19.34;52.34
39295;BME280;52361;52.100;5.248;2023-06-14T04:31:57;101518.0;;;19.34;52.14
39295;BME280;52361;52.100;5.248;2023-06-14T04:33:34;101519.0;;;19.45;51.93
39295;BME280;52361;52.100;5.248;2023-06-14T04:36:45;101523.0;;;19.56;51.37
39295;BME280;52361;52.100;5.248;2023-06-14T04:38:22;101522.0;;;19.66;51.32
39295;BME280;52361;52.100;5.248;2023-06-14T04:39:58;101533.0;;;19.75;51.05
39295;BME280;52361;52.100;5.248;2023-06-14T04:43:10;101530.0;;;19.79;50.73
39295;BME280;52361;52.100;5.248;2023-06-14T04:46:22;101537.0;;;20.02;50.23
39295;BME280;52361;52.100;5.248;2023-06-14T04:49:34;101536.0;;;20.09;50.62
39295;BME280;52361;52.100;5.248;2023-06-14T04:51:11;101536.0;;;20.3;49.79
39295;BME280;52361;52.100;5.248;2023-06-14T04:52:47;101536.0;;;20.39;49.96
39295;BME280;52361;52.100;5.248;2023-06-14T04:55:59;101541.0;;;20.47;49.09
39295;BME280;52361;52.100;5.248;2023-06-14T04:57:35;101540.0;;;20.43;49.54
39295;BME280;52361;52.100;5.248;2023-06-14T04:59:11;101535.0;;;20.72;49.33
39295;BME280;52361;52.100;5.248;2023-06-14T05:00:47;101534.0;;;20.7;48.77
39295;BME280;52361;52.100;5.248;2023-06-14T05:04:01;101541.0;;;20.69;48.31
39295;BME280;52361;52.100;5.248;2023-06-14T05:05:37;101540.0;;;20.68;48.43
39295;BME280;52361;52.100;5.248;2023-06-14T05:07:13;101540.0;;;20.91;48.01
39295;BME280;52361;52.100;5.248;2023-06-14T05:10:25;101542.0;;;21.04;47.92
39295;BME280;52361;52.100;5.248;2023-06-14T05:12:02;101542.0;;;21.25;47.42
39295;BME280;52361;52.100;5.248;2023-06-14T05:13:37;101542.0;;;21.18;46.81
39295;BME280;52361;52.100;5.248;2023-06-14T05:16:50;101543.0;;;21.27;47.14
39295;BME280;52361;52.100;5.248;2023-06-14T05:18:26;101542.0;;;21.41;46.65
39295;BME280;52361;52.100;5.248;2023-06-14T05:20:02;101546.0;;;21.35;46.66
39295;BME280;52361;52.100;5.248;2023-06-14T05:21:38;101547.0;;;21.5;46.39
39295;BME280;52361;52.100;5.248;2023-06-14T05:24:50;101548.0;;;21.51;46.15
39295;BME280;52361;52.100;5.248;2023-06-14T05:26:27;101551.0;;;21.65;45.81
39295;BME280;52361;52.100;5.248;2023-06-14T05:28:03;101555.0;;;21.79;45.6
39295;BME280;52361;52.100;5.248;2023-06-14T05:31:15;101555.0;;;21.98;45.27
39295;BME280;52361;52.100;5.248;2023-06-14T05:32:51;101555.0;;;22.0;45.53
39295;BME280;52361;52.100;5.248;2023-06-14T05:34:27;101555.0;;;21.93;44.74
39295;BME280;52361;52.100;5.248;2023-06-14T05:37:40;101551.0;;;22.12;45.02
39295;BME280;52361;52.100;5.248;2023-06-14T05:39:16;101550.0;;;22.36;45.11
39295;BME280;52361;52.100;5.248;2023-06-14T05:40:52;101553.0;;;22.47;44.44
39295;BME280;52361;52.100;5.248;2023-06-14T05:44:04;101558.0;;;22.62;44.15
39295;BME280;52361;52.100;5.248;2023-06-14T05:45:40;101556.0;;;22.62;44.09
39295;BME280;52361;52.100;5.248;2023-06-14T05:47:16;101559.0;;;22.65;43.8
39295;BME280;52361;52.100;5.248;2023-06-14T05:48:53;101557.0;;;22.67;43.61
39295;BME280;52361;52.100;5.248;2023-06-14T05:52:08;101559.0;;;22.69;43.66
39295;BME280;52361;52.100;5.248;2023-06-14T05:53:44;101563.0;;;23.02;43.13
39295;BME280;52361;52.100;5.248;2023-06-14T05:55:20;101560.0;;;23.11;43.3
39295;BME280;52361;52.100;5.248;2023-06-14T05:58:32;101563.0;;;23.29;42.84
39295;BME280;52361;52.100;5.248;2023-06-14T06:00:09;101569.0;;;23.36;42.34
39295;BME280;52361;52.100;5.248;2023-06-14T06:01:46;101569.0;;;23.44;42.37
39295;BME280;52361;52.100;5.248;2023-06-14T06:04:58;101576.0;;;23.32;41.95
39295;BME280;52361;52.100;5.248;2023-06-14T06:06:34;101574.0;;;23.51;42.26
39295;BME280;52361;52.100;5.248;2023-06-14T06:08:10;101575.0;;;23.7;43.16
39295;BME280;52361;52.100;5.248;2023-06-14T06:09:46;101580.0;;;23.76;42.48
39295;BME280;52361;52.100;5.248;2023-06-14T06:12:59;101583.0;;;23.92;41.85
39295;BME280;52361;52.100;5.248;2023-06-14T06:14:35;101584.0;;;24.1;41.3
39295;BME280;52361;52.100;5.248;2023-06-14T06:16:11;101586.0;;;24.26;40.62
39295;BME280;52361;52.100;5.248;2023-06-14T06:19:23;101582.0;;;24.32;40.71
39295;BME280;52361;52.100;5.248;2023-06-14T06:20:59;101585.0;;;24.62;40.1
39295;BME280;52361;52.100;5.248;2023-06-14T06:22:35;101587.0;;;24.82;40.28
39295;BME280;52361;52.100;5.248;2023-06-14T06:25:48;101587.0;;;24.81;39.37
39295;BME280;52361;52.100;5.248;2023-06-14T06:27:24;101586.0;;;24.96;39.67
39295;BME280;52361;52.100;5.248;2023-06-14T06:29:00;101594.0;;;24.49;39.24
39295;BME280;52361;52.100;5.248;2023-06-14T06:32:12;101596.0;;;24.71;39.24
39295;BME280;52361;52.100;5.248;2023-06-14T06:33:49;101589.0;;;24.53;39.64
39295;BME280;52361;52.100;5.248;2023-06-14T06:35:26;101587.0;;;24.67;38.83
39295;BME280;52361;52.100;5.248;2023-06-14T06:37:02;101591.0;;;24.92;38.83
39295;BME280;52361;52.100;5.248;2023-06-14T06:40:14;101595.0;;;24.8;38.69
39295;BME280;52361;52.100;5.248;2023-06-14T06:41:50;101591.0;;;24.7;38.61
39295;BME280;52361;52.100;5.248;2023-06-14T06:43:26;101596.0;;;24.87;39.21
39295;BME280;52361;52.100;5.248;2023-06-14T06:46:40;101599.0;;;25.39;38.74
39295;BME280;52361;52.100;5.248;2023-06-14T06:48:16;101602.0;;;25.24;38.17
39295;BME280;52361;52.100;5.248;2023-06-14T06:49:52;101606.0;;;25.41;37.96
39295;BME280;52361;52.100;5.248;2023-06-14T06:53:04;101609.0;;;25.35;37.75
39295;BME280;52361;52.100;5.248;2023-06-14T06:54:40;101611.0;;;25.24;38.21
39295;BME280;52361;52.100;5.248;2023-06-14T06:56:16;101615.0;;;25.4;38.11
39295;BME280;52361;52.100;5.248;2023-06-14T06:57:52;101615.0;;;25.66;38.22
39295;BME280;52361;52.100;5.248;2023-06-14T07:01:05;101612.0;;;25.62;37.49
39295;BME280;52361;52.100;5.248;2023-06-14T07:02:41;101622.0;;;25.35;37.64
39295;BME280;52361;52.100;5.248;2023-06-14T07:04:17;101614.0;;;25.58;37.11
39295;BME280;52361;52.100;5.248;2023-06-14T07:07:29;101620.0;;;25.78;37.18
39295;BME280;52361;52.100;5.248;2023-06-14T07:09:05;101618.0;;;25.92;36.96
39295;BME280;52361;52.100;5.248;2023-06-14T07:10:42;101623.0;;;26.02;37.01
39295;BME280;52361;52.100;5.248;2023-06-14T07:13:54;101620.0;;;26.24;36.28
39295;BME280;52361;52.100;5.248;2023-06-14T07:17:06;101626.0;;;26.4;36.42
39295;BME280;52361;52.100;5.248;2023-06-14T07:20:18;101625.0;;;26.77;36.64
39295;BME280;52361;52.100;5.248;2023-06-14T07:21:55;101631.0;;;26.8;34.9
39295;BME280;52361;52.100;5.248;2023-06-14T07:23:31;101626.0;;;27.07;35.21
39295;BME280;52361;52.100;5.248;2023-06-14T07:25:08;101630.0;;;27.26;34.37
39295;BME280;52361;52.100;5.248;2023-06-14T07:28:20;101626.0;;;27.3;33.89
39295;BME280;52361;52.100;5.248;2023-06-14T07:29:56;101630.0;;;27.58;33.85
39295;BME280;52361;52.100;5.248;2023-06-14T07:31:32;101632.0;;;27.38;33.85
39295;BME280;52361;52.100;5.248;2023-06-14T07:34:45;101636.0;;;27.36;33.81
39295;BME280;52361;52.100;5.248;2023-06-14T07:36:21;101630.0;;;27.24;34.1
39295;BME280;52361;52.100;5.248;2023-06-14T07:37:58;101640.0;;;27.54;33.82
39295;BME280;52361;52.100;5.248;2023-06-14T07:41:10;101637.0;;;27.52;34.03
39295;BME280;52361;52.100;5.248;2023-06-14T07:42:46;101639.0;;;27.79;33.4
39295;BME280;52361;52.100;5.248;2023-06-14T07:44:22;101648.0;;;27.8;33.15
39295;BME280;52361;52.100;5.248;2023-06-14T07:45:59;101657.0;;;27.85;32.65
39295;BME280;52361;52.100;5.248;2023-06-14T07:49:11;101653.0;;;28.06;32.78
39295;BME280;52361;52.100;5.248;2023-06-14T07:50:47;101650.0;;;28.17;33.0
39295;BME280;52361;52.100;5.248;2023-06-14T07:52:23;101653.0;;;28.3;32.8
39295;BME280;52361;52.100;5.248;2023-06-14T07:55:35;101655.0;;;28.1;32.36
39295;BME280;52361;52.100;5.248;2023-06-14T07:57:11;101652.0;;;28.17;32.1
39295;BME280;52361;52.100;5.248;2023-06-14T07:58:47;101660.0;;;28.0;32.15
39295;BME280;52361;52.100;5.248;2023-06-14T08:02:00;101653.0;;;28.1;32.25
39295;BME280;52361;52.100;5.248;2023-06-14T08:03:36;101659.0;;;28.31;31.86
39295;BME280;52361;52.100;5.248;2023-06-14T08:05:12;101665.0;;;28.41;31.83
39295;BME280;52361;52.100;5.248;2023-06-14T08:08:25;101668.0;;;28.68;31.25
39295;BME280;52361;52.100;5.248;2023-06-14T08:10:02;101662.0;;;28.72;30.95
39295;BME280;52361;52.100;5.248;2023-06-14T08:11:38;101666.0;;;29.08;31.43
39295;BME280;52361;52.100;5.248;2023-06-14T08:13:14;101671.0;;;29.44;31.0
39295;BME280;52361;52.100;5.248;2023-06-14T08:16:26;101666.0;;;29.54;30.75
39295;BME280;52361;52.100;5.248;2023-06-14T08:18:02;101665.0;;;29.23;30.31
39295;BME280;52361;52.100;5.248;2023-06-14T08:19:38;101667.0;;;29.54;30.41
39295;BME280;52361;52.100;5.248;2023-06-14T08:22:50;101667.0;;;29.48;30.54
39295;BME280;52361;52.100;5.248;2023-06-14T08:24:27;101666.0;;;29.28;30.1
39295;BME280;52361;52.100;5.248;2023-06-14T08:26:04;101664.0;;;29.45;29.6
39295;BME280;52361;52.100;5.248;2023-06-14T08:29:16;101663.0;;;29.47;29.28
39295;BME280;52361;52.100;5.248;2023-06-14T08:30:52;101668.0;;;29.57;30.02
39295;BME280;52361;52.100;5.248;2023-06-14T08:32:28;101662.0;;;29.36;29.2
39295;BME280;52361;52.100;5.248;2023-06-14T08:34:04;101669.0;;;29.36;29.25
39295;BME280;52361;52.100;5.248;2023-06-14T08:37:17;101667.0;;;29.58;30.07
39295;BME280;52361;52.100;5.248;2023-06-14T08:38:53;101660.0;;;30.05;29.64
39295;BME280;52361;52.100;5.248;2023-06-14T08:40:30;101666.0;;;30.37;29.14
39295;BME280;52361;52.100;5.248;2023-06-14T08:43:45;101671.0;;;29.88;28.53
39295;BME280;52361;52.100;5.248;2023-06-14T08:45:22;101662.0;;;30.13;28.5
39295;BME280;52361;52.100;5.248;2023-06-14T08:47:00;101667.0;;;30.32;27.46
39295;BME280;52361;52.100;5.248;2023-06-14T08:50:15;101655.0;;;29.93;27.97
39295;BME280;52361;52.100;5.248;2023-06-14T08:51:56;101659.0;;;30.22;28.64
39295;BME280;52361;52.100;5.248;2023-06-14T08:53:36;101661.0;;;29.79;27.74
39295;BME280;52361;52.100;5.248;2023-06-14T08:55:13;101656.0;;;29.96;28.46
39295;BME280;52361;52.100;5.248;2023-06-14T08:58:27;101659.0;;;30.22;28.57
39295;BME280;52361;52.100;5.248;2023-06-14T09:00:06;101659.0;;;30.46;27.71
39295;BME280;52361;52.100;5.248;2023-06-14T09:01:41;101658.0;;;30.26;27.1
39295;BME280;52361;52.100;5.248;2023-06-14T09:04:54;101668.0;;;30.3;27.17
39295;BME280;52361;52.100;5.248;2023-06-14T09:06:30;101664.0;;;30.37;26.62
39295;BME280;52361;52.100;5.248;2023-06-14T09:08:06;101663.0;;;30.42;26.67
39295;BME280;52361;52.100;5.248;2023-06-14T09:09:42;101667.0;;;30.49;26.12
39295;BME280;52361;52.100;5.248;2023-06-14T09:12:55;101661.0;;;30.64;27.58
39295;BME280;52361;52.100;5.248;2023-06-14T09:14:33;101665.0;;;31.21;26.22
39295;BME280;52361;52.100;5.248;2023-06-14T09:16:09;101661.0;;;30.66;26.09
39295;BME280;52361;52.100;5.248;2023-06-14T09:19:23;101667.0;;;30.9;26.84
39295;BME280;52361;52.100;5.248;2023-06-14T09:20:59;101672.0;;;30.73;25.9
39295;BME280;52361;52.100;5.248;2023-06-14T09:22:37;101671.0;;;30.59;26.25
39295;BME280;52361;52.100;5.248;2023-06-14T09:25:50;101665.0;;;30.84;26.03
39295;BME280;52361;52.100;5.248;2023-06-14T09:27:26;101673.0;;;30.93;25.56
39295;BME280;52361;52.100;5.248;2023-06-14T09:29:05;101676.0;;;30.99;25.5
39295;BME280;52361;52.100;5.248;2023-06-14T09:30:41;101669.0;;;31.02;25.28
39295;BME280;52361;52.100;5.248;2023-06-14T09:33:54;101673.0;;;30.86;25.63
39295;BME280;52361;52.100;5.248;2023-06-14T09:35:31;101674.0;;;30.78;25.2
39295;BME280;52361;52.100;5.248;2023-06-14T09:37:07;101670.0;;;30.96;25.22
39295;BME280;52361;52.100;5.248;2023-06-14T09:40:28;101673.0;;;30.84;25.11
39295;BME280;52361;52.100;5.248;2023-06-14T09:42:16;101678.0;;;30.99;24.9
39295;BME280;52361;52.100;5.248;2023-06-14T09:43:53;101680.0;;;30.71;24.65
39295;BME280;52361;52.100;5.248;2023-06-14T09:45:29;101678.0;;;31.14;24.45
39295;BME280;52361;52.100;5.248;2023-06-14T09:48:42;101675.0;;;31.18;24.77
39295;BME280;52361;52.100;5.248;2023-06-14T09:50:18;101682.0;;;31.2;24.88
39295;BME280;52361;52.100;5.248;2023-06-14T09:51:55;101676.0;;;30.88;24.94
39295;BME280;52361;52.100;5.248;2023-06-14T09:55:12;101675.0;;;31.08;25.37
39295;BME280;52361;52.100;5.248;2023-06-14T09:56:51;101670.0;;;31.33;25.02
39295;BME280;52361;52.100;5.248;2023-06-14T09:58:29;101662.0;;;31.25;25.25
39295;BME280;52361;52.100;5.248;2023-06-14T10:00:07;101665.0;;;31.26;24.94
39295;BME280;52361;52.100;5.248;2023-06-14T10:03:24;101665.0;;;31.4;24.58
39295;BME280;52361;52.100;5.248;2023-06-14T10:05:05;101666.0;;;31.27;24.92
39295;BME280;52361;52.100;5.248;2023-06-14T10:06:45;101671.0;;;31.11;24.58
39295;BME280;52361;52.100;5.248;2023-06-14T10:08:23;101661.0;;;31.1;23.63
39295;BME280;52361;52.100;5.248;2023-06-14T10:11:40;101666.0;;;31.12;24.17
39295;BME280;52361;52.100;5.248;2023-06-14T10:13:16;101666.0;;;31.28;24.01
39295;BME280;52361;52.100;5.248;2023-06-14T10:14:53;101670.0;;;31.48;23.97
39295;BME280;52361;52.100;5.248;2023-06-14T10:18:19;101675.0;;;31.41;24.25
39295;BME280;52361;52.100;5.248;2023-06-14T10:20:06;101674.0;;;31.46;24.64
39295;BME280;52361;52.100;5.248;2023-06-14T10:21:59;101673.0;;;31.59;24.54
39295;BME280;52361;52.100;5.248;2023-06-14T10:23:40;101671.0;;;31.76;24.02
39295;BME280;52361;52.100;5.248;2023-06-14T10:25:33;101670.0;;;31.63;24.76
39295;BME280;52361;52.100;5.248;2023-06-14T10:27:13;101660.0;;;31.77;24.16
39295;BME280;52361;52.100;5.248;2023-06-14T10:30:35;101671.0;;;31.84;24.29
39295;BME280;52361;52.100;5.248;2023-06-14T10:32:11;101668.0;;;31.92;24.19
39295;BME280;52361;52.100;5.248;2023-06-14T10:33:49;101671.0;;;32.06;23.66
39295;BME280;52361;52.100;5.248;2023-06-14T10:35:26;101666.0;;;31.7;23.8
39295;BME280;52361;52.100;5.248;2023-06-14T10:38:41;101661.0;;;31.64;24.61
39295;BME280;52361;52.100;5.248;2023-06-14T10:40:30;101676.0;;;32.01;23.37
39295;BME280;52361;52.100;5.248;2023-06-14T10:42:07;101670.0;;;31.93;23.11
39295;BME280;52361;52.100;5.248;2023-06-14T10:45:19;101680.0;;;31.81;23.01
39295;BME280;52361;52.100;5.248;2023-06-14T10:46:59;101666.0;;;32.01;22.12
39295;BME280;52361;52.100;5.248;2023-06-14T10:48:40;101663.0;;;31.81;22.75
39295;BME280;52361;52.100;5.248;2023-06-14T10:50:16;101669.0;;;31.46;23.69
39295;BME280;52361;52.100;5.248;2023-06-14T10:53:40;101665.0;;;31.33;23.55
39295;BME280;52361;52.100;5.248;2023-06-14T10:55:17;101655.0;;;31.29;23.73
39295;BME280;52361;52.100;5.248;2023-06-14T10:56:53;101657.0;;;31.27;24.38
39295;BME280;52361;52.100;5.248;2023-06-14T10:58:29;101652.0;;;31.11;25.05
39295;BME280;52361;52.100;5.248;2023-06-14T11:01:53;101655.0;;;31.17;25.05
39295;BME280;52361;52.100;5.248;2023-06-14T11:03:50;101664.0;;;31.61;24.58
39295;BME280;52361;52.100;5.248;2023-06-14T11:05:27;101659.0;;;31.73;24.59
39295;BME280;52361;52.100;5.248;2023-06-14T11:07:15;101652.0;;;31.54;24.33
39295;BME280;52361;52.100;5.248;2023-06-14T11:09:20;101656.0;;;31.64;25.28
39295;BME280;52361;52.100;5.248;2023-06-14T11:12:09;101653.0;;;31.94;25.14